createdAt,value
2023-04-30T00:00:45.547Z,99222.88
2023-04-30T00:03:12.499Z,99217.84
2023-04-30T00:05:39.394Z,99226.47
2023-04-30T00:08:06.274Z,99224.91
2023-04-30T00:10:33.144Z,99220.38
2023-04-30T00:13:00.032Z,99226.47
2023-04-30T00:15:26.919Z,99227.34
2023-04-30T00:17:53.754Z,99226.56
2023-04-30T00:20:20.618Z,99226.47
2023-04-30T00:22:47.414Z,99233.28
2023-04-30T00:25:14.244Z,99224.72
2023-04-30T00:27:41.169Z,99233.47
2023-04-30T00:30:08.607Z,99226.44
2023-04-30T00:32:35.541Z,99219.53
2023-04-30T00:35:02.977Z,99222.13
2023-04-30T00:37:29.859Z,99216.84
2023-04-30T00:39:57.061Z,99226.47
2023-04-30T00:42:24.399Z,99217.69
2023-04-30T00:44:51.215Z,99228.38
2023-04-30T00:47:18.628Z,99229.94
2023-04-30T00:49:45.619Z,99230.97
2023-04-30T00:52:13.182Z,99228.28
2023-04-30T00:54:40.531Z,99232.91
2023-04-30T00:57:09.876Z,99231.03
2023-04-30T00:59:37.070Z,99200.94
2023-04-30T01:02:03.953Z,99238.84
2023-04-30T01:04:31.646Z,99235.31
2023-04-30T01:06:58.458Z,99231.88
2023-04-30T01:09:25.584Z,99233.63
2023-04-30T01:12:14.173Z,99234.56
2023-04-30T01:14:54.721Z,99240.72
2023-04-30T01:17:28.781Z,99231.13
2023-04-30T01:19:56.445Z,99228.78
2023-04-30T01:22:39.599Z,99232.38
2023-04-30T01:25:40.825Z,99231.19
2023-04-30T01:28:16.667Z,99221.81
2023-04-30T01:30:46.739Z,99222.72
2023-04-30T01:33:13.992Z,99217.59
2023-04-30T01:35:59.694Z,99226.25
2023-04-30T01:38:50.872Z,99216.03
2023-04-30T01:41:43.913Z,99228.19
2023-04-30T01:44:17.972Z,99215.19
2023-04-30T01:47:16.969Z,99211.56
2023-04-30T01:50:11.649Z,99206.34
2023-04-30T01:52:50.724Z,99210.91
2023-04-30T01:55:43.524Z,99214.34
2023-04-30T01:58:15.664Z,99221.25
2023-04-30T02:00:42.949Z,99218.88
2023-04-30T02:03:09.942Z,99218.88
2023-04-30T02:05:36.903Z,99223.50
2023-04-30T02:08:03.949Z,99225.78
2023-04-30T02:10:30.807Z,99222.16
2023-04-30T02:12:57.683Z,99219.56
2023-04-30T02:15:24.576Z,99222.91
2023-04-30T02:17:51.469Z,99217.81
2023-04-30T02:20:18.589Z,99219.41
2023-04-30T02:22:45.540Z,99221.06
2023-04-30T02:25:12.747Z,99214.94
2023-04-30T02:27:40.445Z,99222.00
2023-04-30T02:30:08.100Z,99221.84
2023-04-30T02:32:35.268Z,99215.88
2023-04-30T02:35:02.391Z,99218.56
2023-04-30T02:37:29.196Z,99212.69
2023-04-30T02:40:32.983Z,99219.91
2023-04-30T02:43:28.650Z,99219.91
2023-04-30T02:45:55.908Z,99225.78
2023-04-30T02:48:24.500Z,99221.44
2023-04-30T02:50:52.023Z,99222.06
2023-04-30T02:53:20.816Z,99221.25
2023-04-30T02:55:48.650Z,99224.75
2023-04-30T02:58:15.564Z,99224.75
2023-04-30T03:00:42.373Z,99230.06
2023-04-30T03:03:10.497Z,99224.09
2023-04-30T03:06:02.025Z,99199.09
2023-04-30T03:08:53.061Z,99225.13
2023-04-30T03:11:31.318Z,99230.31
2023-04-30T03:14:00.962Z,99218.47
2023-04-30T03:16:40.117Z,99231.16
2023-04-30T03:19:07.075Z,99221.75
2023-04-30T03:21:34.198Z,99227.03
2023-04-30T03:24:01.147Z,99226.19
2023-04-30T03:26:28.028Z,99221.06
2023-04-30T03:28:55.844Z,99221.16
2023-04-30T03:31:22.901Z,99212.78
2023-04-30T03:33:49.905Z,99223.75
2023-04-30T03:36:16.855Z,99222.41
2023-04-30T03:38:43.626Z,99218.06
2023-04-30T03:41:10.911Z,99207.81
2023-04-30T03:43:38.080Z,99216.53
2023-04-30T03:46:05.176Z,99221.41
2023-04-30T03:48:32.216Z,99220.56
2023-04-30T03:50:59.136Z,99225.59
2023-04-30T03:53:26.648Z,99217.72
2023-04-30T03:55:54.420Z,99224.59
2023-04-30T03:58:21.785Z,99210.16
2023-04-30T04:00:48.934Z,99215.03
2023-04-30T04:03:16.274Z,99205.06
2023-04-30T04:05:43.178Z,99222.91
2023-04-30T04:08:10.864Z,99221.25
2023-04-30T04:10:38.602Z,99232.63
2023-04-30T04:13:06.409Z,99223.44
2023-04-30T04:15:34.255Z,99237.91
2023-04-30T04:18:01.246Z,99231.13
2023-04-30T04:20:29.792Z,99223.66
2023-04-30T04:22:57.097Z,99227.78
2023-04-30T04:25:25.208Z,99228.09
2023-04-30T04:27:52.407Z,99220.81
2023-04-30T04:30:19.592Z,99228.34
2023-04-30T04:32:51.768Z,99239.50
2023-04-30T04:35:19.291Z,99240.34
2023-04-30T04:37:46.186Z,99235.25
2023-04-30T04:40:14.017Z,99237.97
2023-04-30T04:42:40.926Z,99234.63
2023-04-30T04:45:08.566Z,99236.97
2023-04-30T04:47:35.660Z,99239.72
2023-04-30T04:50:02.879Z,99237.66
2023-04-30T04:52:29.768Z,99240.34
2023-04-30T04:54:56.698Z,99244.75
2023-04-30T04:57:23.556Z,99238.72
2023-04-30T04:59:50.422Z,99237.72
2023-04-30T05:02:17.248Z,99240.78
2023-04-30T05:04:44.132Z,99233.75
2023-04-30T05:07:11.349Z,99241.94
2023-04-30T05:09:39.197Z,99229.81
2023-04-30T05:12:06.148Z,99236.66
2023-04-30T05:14:32.918Z,99241.22
2023-04-30T05:16:59.732Z,99234.91
2023-04-30T05:19:26.702Z,99239.13
2023-04-30T05:21:53.477Z,99245.00
2023-04-30T05:24:20.369Z,99247.53
2023-04-30T05:26:47.168Z,99236.66
2023-04-30T05:29:14.023Z,99240.50
2023-04-30T05:31:40.959Z,99242.94
2023-04-30T05:34:07.800Z,99245.44
2023-04-30T05:36:34.600Z,99206.56
2023-04-30T05:39:01.396Z,99241.69
2023-04-30T05:41:28.190Z,99241.69
2023-04-30T05:43:55.423Z,99243.41
2023-04-30T05:46:22.372Z,99238.78
2023-04-30T05:48:49.258Z,99237.03
2023-04-30T05:51:16.048Z,99243.81
2023-04-30T05:53:43.390Z,99240.31
2023-04-30T05:56:10.286Z,99243.59
2023-04-30T05:58:37.146Z,99242.66
2023-04-30T06:01:04.273Z,99243.75
2023-04-30T06:03:31.556Z,99239.38
2023-04-30T06:05:58.761Z,99243.69
2023-04-30T06:08:25.669Z,99245.19
2023-04-30T06:10:52.505Z,99247.69
2023-04-30T06:13:19.381Z,99245.00
2023-04-30T06:15:46.204Z,99235.63
2023-04-30T06:18:14.203Z,99237.16
2023-04-30T06:20:41.164Z,99238.16
2023-04-30T06:23:09.172Z,99238.16
2023-04-30T06:25:35.987Z,99244.13
2023-04-30T06:28:02.812Z,99243.19
2023-04-30T06:30:31.463Z,99243.19
2023-04-30T06:32:58.354Z,99237.06
2023-04-30T06:35:25.206Z,99231.13
2023-04-30T06:37:52.016Z,99242.88
2023-04-30T06:40:19.072Z,99249.66
2023-04-30T06:42:47.633Z,99254.63
2023-04-30T06:45:15.296Z,99252.72
2023-04-30T06:47:49.312Z,99256.13
2023-04-30T06:50:22.449Z,99240.53
2023-04-30T06:52:52.785Z,99250.78
2023-04-30T06:55:23.181Z,99253.13
2023-04-30T06:57:50.053Z,99242.91
2023-04-30T07:00:17.240Z,99250.94
2023-04-30T07:02:44.384Z,99241.69
2023-04-30T07:05:12.144Z,99252.63
2023-04-30T07:07:39.106Z,99250.78
2023-04-30T07:10:06.589Z,99249.09
2023-04-30T07:12:33.506Z,99246.41
2023-04-30T07:15:00.559Z,99241.38
2023-04-30T07:17:27.881Z,99238.59
2023-04-30T07:19:55.132Z,99232.72
2023-04-30T07:22:22.270Z,99242.72
2023-04-30T07:24:49.289Z,99239.28
2023-04-30T07:27:16.226Z,99238.28
2023-04-30T07:29:43.054Z,99238.13
2023-04-30T07:32:09.940Z,99232.75
2023-04-30T07:34:36.786Z,99233.50
2023-04-30T07:37:03.764Z,99231.84
2023-04-30T07:39:31.135Z,99225.50
2023-04-30T07:41:58.028Z,99211.03
2023-04-30T07:44:24.884Z,99220.59
2023-04-30T07:46:51.676Z,99222.59
2023-04-30T07:49:18.522Z,99219.63
2023-04-30T07:51:45.783Z,99216.03
2023-04-30T07:54:12.935Z,99211.81
2023-04-30T07:56:39.885Z,99203.13
2023-04-30T07:59:06.726Z,99217.44
2023-04-30T08:01:33.625Z,99221.72
2023-04-30T08:04:00.737Z,99213.91
2023-04-30T08:06:27.863Z,99223.22
2023-04-30T08:08:54.832Z,99213.16
2023-04-30T08:11:21.699Z,99210.28
2023-04-30T08:13:48.500Z,99217.94
2023-04-30T08:16:15.922Z,99210.13
2023-04-30T08:18:44.931Z,99205.59
2023-04-30T08:21:15.953Z,99206.19
2023-04-30T08:23:42.855Z,99219.00
2023-04-30T08:26:09.722Z,99206.91
2023-04-30T08:28:36.596Z,99208.50
2023-04-30T08:31:03.539Z,99213.72
2023-04-30T08:33:31.830Z,99201.53
2023-04-30T08:35:59.765Z,99202.44
2023-04-30T08:38:28.163Z,99216.03
2023-04-30T08:41:26.283Z,99203.97
2023-04-30T08:43:56.913Z,99209.25
2023-04-30T08:46:25.076Z,99215.56
2023-04-30T08:48:52.083Z,99214.28
2023-04-30T08:51:19.147Z,99215.59
2023-04-30T08:53:46.851Z,99207.97
2023-04-30T08:56:13.693Z,99207.22
2023-04-30T08:58:41.264Z,99214.09
2023-04-30T09:01:09.692Z,99207.03
2023-04-30T09:03:37.648Z,99210.56
2023-04-30T09:06:04.998Z,99210.31
2023-04-30T09:08:49.788Z,99209.63
2023-04-30T09:11:30.539Z,99212.91
2023-04-30T09:14:02.073Z,99201.25
2023-04-30T09:16:44.467Z,99211.88
2023-04-30T09:19:28.094Z,99215.31
2023-04-30T09:21:55.461Z,99200.88
2023-04-30T09:24:22.959Z,99206.66
2023-04-30T09:26:51.677Z,99200.72
2023-04-30T09:29:18.505Z,99213.56
2023-04-30T09:31:47.600Z,99205.00
2023-04-30T09:34:15.155Z,99202.38
2023-04-30T09:36:55.126Z,99200.63
2023-04-30T09:39:22.288Z,99202.78
2023-04-30T09:41:51.995Z,99202.63
2023-04-30T09:44:31.650Z,99202.63
2023-04-30T09:46:59.292Z,99204.56
2023-04-30T09:49:27.395Z,99201.28
2023-04-30T09:51:59.982Z,99204.66
2023-04-30T09:54:31.768Z,99197.50
2023-04-30T09:57:02.243Z,99187.53
2023-04-30T09:59:37.789Z,99199.84
2023-04-30T10:02:07.384Z,99204.31
2023-04-30T10:04:40.044Z,99196.09
2023-04-30T10:07:15.745Z,99199.47
2023-04-30T10:09:49.774Z,99199.09
2023-04-30T10:12:24.879Z,99192.19
2023-04-30T10:15:06.551Z,99198.16
2023-04-30T10:17:36.458Z,99198.72
2023-04-30T10:20:07.296Z,99195.19
2023-04-30T10:22:35.631Z,99174.72
2023-04-30T10:25:03.624Z,99189.59
2023-04-30T10:27:30.761Z,99191.72
2023-04-30T10:29:58.599Z,99183.66
2023-04-30T10:32:34.551Z,99183.84
2023-04-30T10:35:30.777Z,99189.97
2023-04-30T10:38:06.698Z,99185.69
2023-04-30T10:40:37.644Z,99179.63
2023-04-30T10:43:04.551Z,99188.84
2023-04-30T10:45:39.640Z,99187.38
2023-04-30T10:48:07.228Z,99184.00
2023-04-30T10:50:44.971Z,99180.81
2023-04-30T10:53:16.066Z,99187.16
2023-04-30T10:56:01.890Z,99177.03
2023-04-30T10:58:38.510Z,99175.81
2023-04-30T11:01:17.529Z,99170.41
2023-04-30T11:04:10.335Z,99174.97
2023-04-30T11:06:57.082Z,99174.97
2023-04-30T11:09:48.351Z,99164.63
2023-04-30T11:12:28.088Z,99169.84
2023-04-30T11:15:14.185Z,99166.19
2023-04-30T11:17:43.610Z,99167.03
2023-04-30T11:20:14.416Z,99166.84
2023-04-30T11:22:41.649Z,99152.25
2023-04-30T11:25:13.292Z,99165.81
2023-04-30T11:27:47.177Z,99168.34
2023-04-30T11:30:18.251Z,99161.09
2023-04-30T11:32:48.815Z,99161.84
2023-04-30T11:35:19.688Z,99163.28
2023-04-30T11:37:49.155Z,99149.53
2023-04-30T11:40:15.953Z,99149.44
2023-04-30T11:42:46.107Z,99151.94
2023-04-30T11:45:23.336Z,99153.72
2023-04-30T11:47:54.455Z,99151.94
2023-04-30T11:50:28.949Z,99147.28
2023-04-30T11:53:05.169Z,99143.34
2023-04-30T11:55:32.296Z,99139.03
2023-04-30T11:57:59.988Z,99128.59
2023-04-30T12:00:31.567Z,99130.84
2023-04-30T12:03:03.596Z,99128.22
2023-04-30T12:05:30.818Z,99131.28
2023-04-30T12:08:04.284Z,99133.78
2023-04-30T12:10:32.551Z,99129.50
2023-04-30T12:12:59.642Z,99113.44
2023-04-30T12:15:27.836Z,99122.00
2023-04-30T12:17:59.718Z,99118.38
2023-04-30T12:20:32.554Z,99125.34
2023-04-30T12:22:59.506Z,99120.13
2023-04-30T12:25:29.567Z,99125.34
2023-04-30T12:27:59.442Z,99131.50
2023-04-30T12:30:27.151Z,99123.66
2023-04-30T12:32:59.991Z,99124.50
2023-04-30T12:35:31.293Z,99122.00
2023-04-30T12:38:07.075Z,99126.28
2023-04-30T12:40:34.292Z,99124.31
2023-04-30T12:43:03.580Z,99117.66
2023-04-30T12:45:44.041Z,99120.78
2023-04-30T12:48:11.768Z,99113.41
2023-04-30T12:50:39.324Z,99113.41
2023-04-30T12:53:07.616Z,99101.16
2023-04-30T12:55:37.244Z,99100.56
2023-04-30T12:58:07.589Z,99105.34
2023-04-30T13:00:45.097Z,99098.59
2023-04-30T13:03:13.297Z,99098.69
2023-04-30T13:05:47.295Z,99101.41
2023-04-30T13:08:14.544Z,99090.78
2023-04-30T13:10:41.636Z,99091.69
2023-04-30T13:13:08.419Z,99091.59
2023-04-30T13:15:35.597Z,99088.56
2023-04-30T13:18:03.770Z,99090.13
2023-04-30T13:20:30.661Z,99082.09
2023-04-30T13:22:57.419Z,99074.03
2023-04-30T13:25:24.309Z,99073.19
2023-04-30T13:27:51.195Z,99073.28
2023-04-30T13:30:18.502Z,99059.72
2023-04-30T13:32:46.477Z,99067.88
2023-04-30T13:35:13.391Z,99066.94
2023-04-30T13:37:40.878Z,99067.78
2023-04-30T13:40:09.007Z,99058.78
2023-04-30T13:42:39.578Z,99060.66
2023-04-30T13:45:08.125Z,99071.09
2023-04-30T13:47:35.885Z,99056.38
2023-04-30T13:50:03.747Z,99060.66
2023-04-30T13:52:30.662Z,99058.66
2023-04-30T13:54:57.898Z,99057.56
2023-04-30T13:57:25.194Z,99058.81
2023-04-30T13:59:52.663Z,99057.66
2023-04-30T14:02:19.678Z,99052.31
2023-04-30T14:04:58.123Z,99048.97
2023-04-30T14:07:32.414Z,99066.31
2023-04-30T14:09:59.324Z,99057.97
2023-04-30T14:12:26.122Z,99044.16
2023-04-30T14:14:53.081Z,99052.94
2023-04-30T14:17:20.506Z,99045.97
2023-04-30T14:19:47.483Z,99041.53
2023-04-30T14:22:14.574Z,99044.69
2023-04-30T14:24:41.444Z,99044.47
2023-04-30T14:27:08.298Z,99037.06
2023-04-30T14:29:36.187Z,99036.44
2023-04-30T14:32:04.197Z,99038.75
2023-04-30T14:34:31.739Z,99032.34
2023-04-30T14:37:01.592Z,99027.97
2023-04-30T14:39:28.395Z,99029.00
2023-04-30T14:41:55.590Z,99008.19
2023-04-30T14:44:26.589Z,99013.94
2023-04-30T14:46:53.471Z,99009.66
2023-04-30T14:49:20.502Z,99014.56
2023-04-30T14:51:47.410Z,99002.34
2023-04-30T14:54:14.281Z,99002.22
2023-04-30T14:56:41.328Z,98987.28
2023-04-30T14:59:08.102Z,98992.06
2023-04-30T15:01:34.972Z,98994.47
2023-04-30T15:04:02.203Z,98990.56
2023-04-30T15:06:29.180Z,98997.59
2023-04-30T15:08:56.207Z,98991.19
2023-04-30T15:11:24.137Z,98991.09
2023-04-30T15:13:50.932Z,98994.53
2023-04-30T15:16:18.048Z,98993.72
2023-04-30T15:18:44.902Z,98991.09
2023-04-30T15:21:11.791Z,98989.28
2023-04-30T15:23:38.701Z,98978.34
2023-04-30T15:26:06.394Z,98979.56
2023-04-30T15:28:33.356Z,98975.06
2023-04-30T15:31:01.074Z,98974.56
2023-04-30T15:33:28.919Z,98976.09
2023-04-30T15:35:55.816Z,98972.56
2023-04-30T15:38:22.648Z,98976.09
2023-04-30T15:40:49.573Z,98974.34
2023-04-30T15:43:16.561Z,98984.69
2023-04-30T15:45:45.860Z,98984.69
2023-04-30T15:48:12.782Z,98971.50
2023-04-30T15:50:39.602Z,98973.97
2023-04-30T15:53:06.371Z,98979.19
2023-04-30T15:55:33.239Z,98970.00
2023-04-30T15:58:00.154Z,98972.50
2023-04-30T16:00:27.143Z,98979.66
2023-04-30T16:02:54.645Z,98977.66
2023-04-30T16:05:21.608Z,98964.56
2023-04-30T16:07:48.546Z,98957.66
2023-04-30T16:10:15.420Z,98951.16
2023-04-30T16:12:42.298Z,98957.91
2023-04-30T16:15:10.732Z,98954.50
2023-04-30T16:17:37.640Z,98957.09
2023-04-30T16:20:05.079Z,98953.03
2023-04-30T16:22:31.963Z,98959.91
2023-04-30T16:24:58.717Z,98951.38
2023-04-30T16:27:25.595Z,98946.34
2023-04-30T16:29:52.409Z,98938.84
2023-04-30T16:32:19.238Z,98957.03
2023-04-30T16:34:46.110Z,98939.56
2023-04-30T16:37:13.765Z,98953.38
2023-04-30T16:39:40.643Z,98948.66
2023-04-30T16:42:07.627Z,98935.06
2023-04-30T16:44:34.454Z,98941.63
2023-04-30T16:47:01.545Z,98941.13
2023-04-30T16:49:28.477Z,98938.72
2023-04-30T16:51:55.357Z,98926.84
2023-04-30T16:54:22.427Z,98926.22
2023-04-30T16:56:49.221Z,98928.25
2023-04-30T16:59:16.005Z,98929.16
2023-04-30T17:01:42.853Z,98924.91
2023-04-30T17:04:10.550Z,98933.91
2023-04-30T17:06:38.419Z,98933.16
2023-04-30T17:09:05.835Z,98928.91
2023-04-30T17:11:33.646Z,98934.84
2023-04-30T17:14:00.468Z,98923.91
2023-04-30T17:16:27.597Z,98931.41
2023-04-30T17:18:54.472Z,98932.53
2023-04-30T17:21:21.410Z,98941.56
2023-04-30T17:23:48.190Z,98939.06
2023-04-30T17:26:14.990Z,98940.00
2023-04-30T17:28:41.927Z,98944.59
2023-04-30T17:31:09.301Z,98943.81
2023-04-30T17:33:36.309Z,98935.66
2023-04-30T17:36:03.273Z,98912.28
2023-04-30T17:38:30.054Z,98938.16
2023-04-30T17:40:57.705Z,98944.56
2023-04-30T17:43:24.620Z,98944.88
2023-04-30T17:45:53.142Z,98945.94
2023-04-30T17:48:20.294Z,98938.47
2023-04-30T17:50:47.238Z,98954.06
2023-04-30T17:53:14.226Z,98955.75
2023-04-30T17:55:41.661Z,98958.69
2023-04-30T17:58:11.468Z,98952.72
2023-04-30T18:00:42.152Z,98958.06
2023-04-30T18:03:09.587Z,98957.09
2023-04-30T18:05:36.513Z,98956.59
2023-04-30T18:08:03.345Z,98960.84
2023-04-30T18:10:30.221Z,98960.16
2023-04-30T18:13:00.040Z,98952.63
2023-04-30T18:15:27.745Z,98952.72
2023-04-30T18:17:54.859Z,98956.41
2023-04-30T18:20:22.227Z,98954.72
2023-04-30T18:22:49.217Z,98953.34
2023-04-30T18:25:17.260Z,98947.44
2023-04-30T18:27:44.617Z,98961.41
2023-04-30T18:30:12.583Z,98956.41
2023-04-30T18:32:41.566Z,98965.72
2023-04-30T18:35:09.037Z,98963.50
2023-04-30T18:37:35.888Z,98965.81
2023-04-30T18:40:02.795Z,98959.75
2023-04-30T18:42:30.175Z,98971.03
2023-04-30T18:44:57.242Z,98964.66
2023-04-30T18:47:27.420Z,98965.81
2023-04-30T18:49:54.352Z,98973.13
2023-04-30T18:52:21.358Z,98962.47
2023-04-30T18:54:48.574Z,98967.28
2023-04-30T18:57:18.221Z,98974.88
2023-04-30T18:59:45.172Z,98975.19
2023-04-30T19:02:12.598Z,98962.13
2023-04-30T19:04:39.484Z,98975.00
2023-04-30T19:07:06.358Z,98972.50
2023-04-30T19:09:36.923Z,98977.91
2023-04-30T19:12:03.882Z,98973.53
2023-04-30T19:14:30.966Z,98977.25
2023-04-30T19:16:57.841Z,98981.03
2023-04-30T19:19:24.732Z,98983.81
2023-04-30T19:21:51.584Z,98942.53
2023-04-30T19:24:18.349Z,98981.13
2023-04-30T19:26:45.137Z,98986.63
2023-04-30T19:29:11.921Z,98987.69
2023-04-30T19:31:38.910Z,98984.44
2023-04-30T19:34:05.824Z,98990.78
2023-04-30T19:36:32.694Z,98990.78
2023-04-30T19:38:59.708Z,98992.56
2023-04-30T19:41:27.523Z,98990.34
2023-04-30T19:43:54.589Z,98997.31
2023-04-30T19:46:21.441Z,98995.44
2023-04-30T19:48:48.362Z,98997.53
2023-04-30T19:51:16.069Z,98988.22
2023-04-30T19:53:42.881Z,98994.38
2023-04-30T19:56:09.933Z,98983.22
2023-04-30T19:58:37.042Z,98991.34
2023-04-30T20:01:05.289Z,98993.41
2023-04-30T20:03:34.028Z,98992.94
2023-04-30T20:06:02.781Z,98962.47
2023-04-30T20:08:29.668Z,98971.66
2023-04-30T20:10:57.180Z,98983.03
2023-04-30T20:13:25.047Z,98983.13
2023-04-30T20:15:52.761Z,98986.84
2023-04-30T20:18:19.668Z,98983.69
2023-04-30T20:20:47.291Z,98987.34
2023-04-30T20:23:17.092Z,98982.31
2023-04-30T20:25:45.768Z,98985.03
2023-04-30T20:28:14.538Z,98978.25
2023-04-30T20:30:43.741Z,98975.81
2023-04-30T20:33:11.937Z,98985.59
2023-04-30T20:35:47.192Z,98970.56
2023-04-30T20:38:16.348Z,98983.38
2023-04-30T20:40:46.110Z,98981.72
2023-04-30T20:43:13.109Z,98979.38
2023-04-30T20:45:42.371Z,98983.03
2023-04-30T20:48:09.209Z,98979.88
2023-04-30T20:50:37.321Z,98983.50
2023-04-30T20:53:04.246Z,98977.63
2023-04-30T20:55:31.132Z,98986.41
2023-04-30T20:57:58.128Z,98984.00
2023-04-30T21:00:25.007Z,98983.41
2023-04-30T21:02:53.788Z,98974.13
2023-04-30T21:05:20.796Z,98974.41
2023-04-30T21:07:47.625Z,98984.81
2023-04-30T21:10:14.490Z,98985.00
2023-04-30T21:12:41.386Z,98987.72
2023-04-30T21:15:09.108Z,98982.84
2023-04-30T21:17:36.298Z,98975.31
2023-04-30T21:20:04.056Z,98982.38
2023-04-30T21:22:31.732Z,98974.84
2023-04-30T21:24:58.518Z,98973.94
2023-04-30T21:27:25.284Z,98974.19
2023-04-30T21:29:52.062Z,98970.75
2023-04-30T21:32:18.878Z,98964.63
2023-04-30T21:34:45.726Z,98967.03
2023-04-30T21:37:13.360Z,98972.22
2023-04-30T21:39:40.898Z,98962.19
2023-04-30T21:42:07.902Z,98957.00
2023-04-30T21:44:36.030Z,98942.13
2023-04-30T21:47:03.624Z,98962.75
2023-04-30T21:49:31.238Z,98962.94
2023-04-30T21:51:58.277Z,98954.19
2023-04-30T21:54:25.296Z,98952.72
2023-04-30T21:56:52.172Z,98946.00
2023-04-30T21:59:18.924Z,98947.84
2023-04-30T22:01:45.809Z,98945.34
2023-04-30T22:04:12.647Z,98943.69
2023-04-30T22:06:40.243Z,98945.72
2023-04-30T22:09:07.119Z,98949.25
2023-04-30T22:11:33.959Z,98941.53
2023-04-30T22:14:00.817Z,98910.66
2023-04-30T22:16:27.706Z,98939.31
2023-04-30T22:18:57.328Z,98928.34
2023-04-30T22:21:25.769Z,98931.66
2023-04-30T22:23:52.696Z,98932.78
2023-04-30T22:26:19.566Z,98932.88
2023-04-30T22:28:46.326Z,98914.94
2023-04-30T22:31:13.176Z,98925.09
2023-04-30T22:33:40.067Z,98925.16
2023-04-30T22:36:08.428Z,98925.44
2023-04-30T22:38:35.374Z,98924.00
2023-04-30T22:41:03.839Z,98919.75
2023-04-30T22:43:31.141Z,98912.56
2023-04-30T22:45:58.854Z,98910.81
2023-04-30T22:48:27.591Z,98916.69
2023-04-30T22:50:55.422Z,98918.63
2023-04-30T22:53:22.500Z,98911.00
2023-04-30T22:55:49.834Z,98921.41
2023-04-30T22:58:17.049Z,98913.66
2023-04-30T23:00:44.050Z,98917.28
2023-04-30T23:03:11.272Z,98922.56
2023-04-30T23:05:38.182Z,98922.56
2023-04-30T23:08:05.143Z,98922.66
2023-04-30T23:10:31.923Z,98924.50
2023-04-30T23:12:59.029Z,98921.06
2023-04-30T23:15:26.810Z,98924.59
2023-04-30T23:17:54.424Z,98920.41
2023-04-30T23:20:22.526Z,98922.25
2023-04-30T23:22:49.865Z,98920.75
2023-04-30T23:25:16.972Z,98917.56
2023-04-30T23:27:45.086Z,98915.63
2023-04-30T23:30:12.113Z,98910.69
2023-04-30T23:32:39.046Z,98914.03
2023-04-30T23:35:07.941Z,98909.19
2023-04-30T23:37:35.273Z,98911.63
2023-04-30T23:40:02.311Z,98911.63
2023-04-30T23:42:29.078Z,98910.09
2023-04-30T23:44:55.894Z,98904.16
2023-04-30T23:47:22.962Z,98904.34
2023-04-30T23:49:49.737Z,98904.50
2023-04-30T23:52:16.546Z,98897.91
2023-04-30T23:54:43.374Z,98897.00
2023-04-30T23:57:11.237Z,98894.44
2023-04-30T23:59:38.097Z,98898.75
